Etusivu
METAR-TAF:

METAR-TAF

Lentoasemat :

Asaluyeh, Iran

Leveyspiiri: 27-22-46N, Pituuspiiri: 52-44-15E, korkeus merenpinnasta: 8 m

Tämänhetkinen sää

Tämä raportti tehtiin 43 minuuttia sitten, kello 16.00 UTC
Tuuli 4 kn idästä/kaakosta
Lämpötila 24°C
Kosteus 44%
Ilmanpaine 1011 hPa
Näkyvyys: 6000 m

METAR: OIBP 251600Z 11004KT 6000 NSC 24/11 Q1010 A2984

Aika: 20:13 (16:43 UTC)


TAF: puuttuu

Säähavainnot ja -ennusteet yli 4000 lentoasemalta (METAR- ja TAF-raportit).

Käytössä olevat sääasemat on merkitty karttaan keltaisilla ja punaisilla pisteillä.

Aseta hiiri pisteen päälle nähdäksesi sääaseman nimen.

Klikkaa sitten nähdäksesi säähavainnot ja -ennusteet.

Kartan vaihtaminen: klikkaa mustalla rastilla varustettuja vihreitä pisteitä, niin voit zoomata sisään; viivalla varustettua vihreää pistettä, niin voit zoomata ulos tai vihreitä nuolia, niin pääset viereisille kartoille.


METAR-TAF: